This is the latest recevied weather packets stored in our database for station/object SQ9PDE-13. If no packets are shown the sender has not sent any weather packets the latest 10 day(s).
| Time | Temp. | Humidity | Pressure | Rain* | Wind** | Luminosity | Snow |
|---|---|---|---|---|---|---|---|
| 1777788869 | 19.44° C | 53% | 1019.9 hPa | - | - | - | - |
| 1777788569 | 21.11° C | 51% | 1019.5 hPa | - | - | - | - |
| 1777788268 | 18.89° C | 54% | 1019.9 hPa | - | - | - | - |
| 1777787968 | 17.22° C | 57% | 1020.1 hPa | - | - | - | - |
| 1777787667 | 17.78° C | 55% | 1020.1 hPa | - | - | - | - |
| 1777787367 | 16.11° C | 60% | 1019.7 hPa | - | - | - | - |
| 1777787066 | 15° C | 56% | 1019 hPa | - | - | - | - |
| 1777786766 | 14.44° C | 53% | 1019.1 hPa | - | - | - | - |
| 1777786465 | 13.89° C | 54% | 1019.2 hPa | - | - | - | - |
| 1777786165 | 13.33° C | 54% | 1019.2 hPa | - | - | - | - |
| 1777785864 | 13.33° C | 54% | 1019.2 hPa | - | - | - | - |
| 1777785564 | 13.33° C | 54% | 1019.2 hPa | - | - | - | - |
| 1777785263 | 13.33° C | 54% | 1019.2 hPa | - | - | - | - |
| 1777784963 | 12.78° C | 55% | 1019.3 hPa | - | - | - | - |
| 1777784662 | 12.78° C | 58% | 1020.2 hPa | - | - | - | - |
| 1777784362 | 13.33° C | 64% | 1020.6 hPa | - | - | - | - |
| 1777784061 | 13.33° C | 66% | 1020.6 hPa | - | - | - | - |
| 1777783760 | 13.33° C | 66% | 1020.5 hPa | - | - | - | - |
| 1777783460 | 12.22° C | 66% | 1020.3 hPa | - | - | - | - |
| 1777783160 | 12.22° C | 66% | 1020 hPa | - | - | - | - |
| 1777782859 | 11.67° C | 65% | 1020.1 hPa | - | - | - | - |
| 1777782558 | 11.67° C | 66% | 1020.2 hPa | - | - | - | - |
| 1777782258 | 11.11° C | 67% | 1020.1 hPa | - | - | - | - |
| 1777781957 | 10.56° C | 67% | 1020 hPa | - | - | - | - |
| 1777781657 | 10.56° C | 68% | 1020.1 hPa | - | - | - | - |
* Rain since midnight (hover to see other rain measurements)
** Current wind speed in m/s (hover to see current wind gust speed)